createdAt,value
2022-08-29T00:00:28.368Z,10.27
2022-08-29T00:03:01.182Z,9.10
2022-08-29T00:05:34.419Z,10.30
2022-08-29T00:08:06.829Z,9.68
2022-08-29T00:10:38.748Z,9.43
2022-08-29T00:13:10.847Z,10.93
2022-08-29T00:15:44.915Z,10.63
2022-08-29T00:18:18.131Z,9.25
2022-08-29T00:20:48.305Z,9.57
2022-08-29T00:23:18.956Z,10.73
2022-08-29T00:25:49.506Z,10.43
2022-08-29T00:28:19.420Z,9.65
2022-08-29T00:30:50.088Z,10.13
2022-08-29T00:33:21.583Z,9.98
2022-08-29T00:35:51.462Z,9.80
2022-08-29T00:38:22.170Z,9.18
2022-08-29T00:40:59.006Z,9.68
2022-08-29T00:43:31.719Z,9.40
2022-08-29T00:46:11.175Z,10.18
2022-08-29T00:48:43.419Z,8.00
2022-08-29T00:51:18.455Z,10.18
2022-08-29T00:53:53.737Z,9.95
2022-08-29T00:56:23.789Z,8.60
2022-08-29T00:58:56.845Z,9.18
2022-08-29T01:01:27.030Z,8.85
2022-08-29T01:03:58.419Z,8.63
2022-08-29T01:06:29.891Z,8.63
2022-08-29T01:09:00.028Z,8.90
2022-08-29T01:11:54.114Z,8.32
2022-08-29T01:14:27.234Z,8.02
2022-08-29T01:16:59.950Z,10.23
2022-08-29T01:19:42.529Z,9.10
2022-08-29T01:22:35.033Z,8.85
2022-08-29T01:25:09.580Z,8.63
2022-08-29T01:27:43.208Z,9.40
2022-08-29T01:32:45.073Z,9.68
2022-08-29T01:35:15.079Z,9.40
2022-08-29T01:37:45.431Z,9.05
2022-08-29T01:40:16.763Z,8.85
2022-08-29T01:42:47.860Z,9.23
2022-08-29T01:45:17.822Z,9.90
2022-08-29T01:47:48.353Z,8.20
2022-08-29T01:50:18.424Z,8.32
2022-08-29T01:52:48.434Z,9.30
2022-08-29T01:55:19.804Z,9.30
2022-08-29T01:57:50.073Z,8.45
2022-08-29T02:00:21.608Z,8.07
2022-08-29T02:02:51.648Z,9.05
2022-08-29T02:05:23.080Z,8.27
2022-08-29T02:07:53.414Z,7.85
2022-08-29T02:10:24.923Z,9.32
2022-08-29T02:12:55.329Z,8.63
2022-08-29T02:15:25.850Z,9.00
2022-08-29T02:17:55.683Z,8.70
2022-08-29T02:20:25.627Z,8.68
2022-08-29T02:22:55.607Z,8.55
2022-08-29T02:25:47.574Z,8.60
2022-08-29T02:28:20.397Z,8.32
2022-08-29T02:30:56.586Z,8.03
2022-08-29T02:33:28.973Z,8.60
2022-08-29T02:35:59.618Z,8.40
2022-08-29T02:38:31.089Z,9.85
2022-08-29T02:41:02.583Z,8.70
2022-08-29T02:43:32.583Z,8.43
2022-08-29T02:46:02.807Z,8.55
2022-08-29T02:48:33.570Z,9.07
2022-08-29T02:51:03.548Z,7.50
2022-08-29T02:53:33.721Z,8.82
2022-08-29T02:56:05.254Z,8.85
2022-08-29T02:58:38.908Z,8.30
2022-08-29T03:01:09.607Z,9.05
2022-08-29T03:03:39.995Z,10.20
2022-08-29T03:06:10.779Z,8.48
2022-08-29T03:08:41.259Z,9.68
2022-08-29T03:11:12.654Z,8.70
2022-08-29T03:13:43.159Z,9.50
2022-08-29T03:16:14.563Z,9.60
2022-08-29T03:18:44.491Z,9.27
2022-08-29T03:21:19.693Z,9.18
2022-08-29T03:23:50.733Z,8.60
2022-08-29T03:26:23.689Z,9.15
2022-08-29T03:28:54.234Z,9.60
2022-08-29T03:31:24.164Z,9.57
2022-08-29T03:33:54.191Z,9.50
2022-08-29T03:36:26.863Z,9.10
2022-08-29T03:38:56.950Z,10.02
2022-08-29T03:41:30.211Z,9.63
2022-08-29T03:44:00.462Z,9.57
2022-08-29T03:46:30.432Z,9.90
2022-08-29T03:49:00.341Z,9.80
2022-08-29T03:51:31.690Z,8.98
2022-08-29T03:54:01.762Z,10.05
2022-08-29T03:56:33.874Z,9.55
2022-08-29T03:59:04.821Z,9.77
2022-08-29T04:01:36.161Z,9.52
2022-08-29T04:04:06.925Z,10.20
2022-08-29T04:06:36.803Z,9.57
2022-08-29T04:09:06.736Z,11.65
2022-08-29T04:11:38.598Z,12.05
2022-08-29T04:14:09.076Z,10.73
2022-08-29T04:16:39.440Z,11.32
2022-08-29T04:19:09.582Z,9.85
2022-08-29T04:21:39.468Z,9.60
2022-08-29T04:24:09.363Z,9.93
2022-08-29T04:26:41.213Z,10.50
2022-08-29T04:29:14.316Z,10.55
2022-08-29T04:31:44.886Z,10.55
2022-08-29T04:34:14.916Z,10.05
2022-08-29T04:36:45.707Z,10.65
2022-08-29T04:39:15.873Z,10.57
2022-08-29T04:41:47.019Z,10.80
2022-08-29T04:44:16.867Z,10.52
2022-08-29T04:46:46.776Z,11.63
2022-08-29T04:49:16.732Z,10.50
2022-08-29T04:51:48.127Z,10.27
2022-08-29T04:54:18.325Z,11.10
2022-08-29T04:56:49.571Z,10.60
2022-08-29T04:59:20.995Z,10.75
2022-08-29T05:01:51.409Z,13.80
2022-08-29T05:04:21.437Z,13.40
2022-08-29T05:06:51.303Z,11.25
2022-08-29T05:09:22.169Z,11.35
2022-08-29T05:11:54.132Z,11.43
2022-08-29T05:14:24.671Z,11.15
2022-08-29T05:16:54.871Z,11.43
2022-08-29T05:19:24.829Z,12.07
2022-08-29T05:21:57.986Z,12.55
2022-08-29T05:24:28.378Z,11.80
2022-08-29T05:27:00.023Z,12.27
2022-08-29T05:29:30.465Z,11.65
2022-08-29T05:32:00.497Z,11.93
2022-08-29T05:34:34.048Z,11.18
2022-08-29T05:37:07.653Z,12.13
2022-08-29T05:39:39.487Z,11.05
2022-08-29T05:42:11.966Z,11.32
2022-08-29T05:44:42.252Z,11.38
2022-08-29T05:47:14.290Z,12.05
2022-08-29T05:49:45.412Z,13.20
2022-08-29T05:52:18.119Z,12.68
2022-08-29T05:54:48.274Z,13.97
2022-08-29T05:57:24.403Z,12.82
2022-08-29T05:59:55.181Z,14.02
2022-08-29T06:02:25.513Z,14.80
2022-08-29T06:04:57.208Z,13.32
2022-08-29T06:07:27.565Z,14.35
2022-08-29T06:10:03.268Z,12.70
2022-08-29T06:12:36.035Z,12.52
2022-08-29T06:15:07.456Z,15.65
2022-08-29T06:17:38.458Z,12.38
2022-08-29T06:20:11.362Z,13.77
2022-08-29T06:22:41.453Z,14.23
2022-08-29T06:25:35.547Z,13.20
2022-08-29T06:28:03.131Z,15.05
2022-08-29T06:30:36.109Z,12.95
2022-08-29T06:33:06.078Z,15.20
2022-08-29T06:35:37.848Z,12.25
2022-08-29T06:38:11.984Z,13.90
2022-08-29T06:40:43.807Z,12.60
2022-08-29T06:43:15.227Z,13.90
2022-08-29T06:45:45.790Z,14.95
2022-08-29T06:48:15.864Z,14.68
2022-08-29T06:50:46.003Z,12.73
2022-08-29T06:53:27.394Z,14.20
2022-08-29T06:56:06.511Z,14.10
2022-08-29T06:58:43.002Z,13.73
2022-08-29T07:01:15.068Z,13.68
2022-08-29T07:03:45.170Z,12.43
2022-08-29T07:06:15.208Z,12.75
2022-08-29T07:08:55.478Z,13.77
2022-08-29T07:11:27.839Z,13.60
2022-08-29T07:14:01.748Z,13.43
2022-08-29T07:16:33.519Z,12.63
2022-08-29T07:19:04.031Z,12.95
2022-08-29T07:21:34.163Z,12.57
2022-08-29T07:24:04.745Z,12.23
2022-08-29T07:26:38.863Z,12.52
2022-08-29T07:29:18.079Z,13.43
2022-08-29T07:31:48.947Z,15.90
2022-08-29T07:34:20.897Z,13.20
2022-08-29T07:36:50.940Z,13.43
2022-08-29T07:39:22.188Z,11.32
2022-08-29T07:41:52.816Z,14.48
2022-08-29T07:44:24.248Z,13.10
2022-08-29T07:46:57.063Z,12.60
2022-08-29T07:49:40.183Z,11.57
2022-08-29T07:52:12.331Z,13.23
2022-08-29T07:54:42.421Z,13.40
2022-08-29T07:57:12.903Z,11.57
2022-08-29T07:59:44.349Z,12.18
2022-08-29T08:02:14.776Z,11.88
2022-08-29T08:04:45.293Z,11.45
2022-08-29T08:07:15.512Z,11.77
2022-08-29T08:09:47.283Z,12.10
2022-08-29T08:12:17.966Z,13.10
2022-08-29T08:14:49.759Z,11.65
2022-08-29T08:17:19.897Z,11.82
2022-08-29T08:19:49.825Z,11.88
2022-08-29T08:22:19.849Z,11.55
2022-08-29T08:24:50.041Z,11.02
2022-08-29T08:27:20.560Z,11.50
2022-08-29T08:29:51.765Z,12.02
2022-08-29T08:32:32.237Z,11.25
2022-08-29T08:35:02.950Z,12.15
2022-08-29T08:37:32.853Z,11.00
2022-08-29T08:40:02.911Z,10.40
2022-08-29T08:42:42.751Z,11.20
2022-08-29T08:45:16.915Z,12.90
2022-08-29T08:47:51.380Z,12.95
2022-08-29T08:50:29.443Z,14.73
2022-08-29T08:53:04.368Z,18.88
2022-08-29T08:55:42.722Z,18.08
2022-08-29T08:58:19.236Z,11.52
2022-08-29T09:01:04.702Z,10.93
2022-08-29T09:04:11.168Z,12.10
2022-08-29T09:06:59.392Z,9.93
2022-08-29T09:09:42.684Z,11.98
2022-08-29T09:12:33.662Z,10.68
2022-08-29T09:15:13.375Z,12.00
2022-08-29T09:17:49.258Z,13.40
2022-08-29T09:20:23.424Z,31.08
2022-08-29T09:23:00.858Z,20.15
2022-08-29T09:25:31.795Z,56.45
2022-08-29T09:28:01.988Z,27.65
2022-08-29T09:30:34.084Z,22.83
2022-08-29T09:33:09.207Z,14.02
2022-08-29T09:35:45.619Z,16.98
2022-08-29T09:38:23.811Z,19.42
2022-08-29T09:40:56.433Z,11.43
2022-08-29T09:43:28.818Z,10.93
2022-08-29T09:46:25.053Z,12.77
2022-08-29T09:49:14.490Z,12.23
2022-08-29T09:51:46.299Z,10.07
2022-08-29T09:54:25.041Z,15.27
2022-08-29T09:57:00.460Z,15.43
2022-08-29T09:59:34.680Z,21.05
2022-08-29T10:02:24.899Z,14.18
2022-08-29T10:05:00.737Z,11.32
2022-08-29T10:07:33.854Z,17.95
2022-08-29T10:10:16.102Z,20.92
2022-08-29T10:12:55.555Z,19.15
2022-08-29T10:15:49.437Z,13.02
2022-08-29T10:18:25.077Z,11.83
2022-08-29T10:21:13.204Z,11.93
2022-08-29T10:23:57.686Z,12.15
2022-08-29T10:26:36.039Z,11.85
2022-08-29T10:29:31.472Z,13.32
2022-08-29T10:32:15.158Z,11.10
2022-08-29T10:35:01.929Z,11.63
2022-08-29T10:37:46.664Z,11.88
2022-08-29T10:40:26.088Z,11.73
2022-08-29T10:43:31.365Z,11.10
2022-08-29T10:46:13.400Z,12.00
2022-08-29T10:48:52.859Z,15.55
2022-08-29T10:51:33.174Z,20.98
2022-08-29T10:54:14.395Z,11.63
2022-08-29T10:56:47.722Z,15.63
2022-08-29T10:59:27.871Z,12.90
2022-08-29T11:02:02.031Z,11.57
2022-08-29T11:04:38.439Z,15.07
2022-08-29T11:07:16.263Z,12.55
2022-08-29T11:09:51.572Z,12.52
2022-08-29T11:12:28.583Z,10.95
2022-08-29T11:15:03.908Z,11.93
2022-08-29T11:17:40.757Z,10.93
2022-08-29T11:20:15.919Z,10.80
2022-08-29T11:22:51.997Z,10.75
2022-08-29T11:25:23.714Z,11.45
2022-08-29T11:28:04.263Z,11.95
2022-08-29T11:30:46.089Z,13.25
2022-08-29T11:33:31.087Z,11.73
2022-08-29T11:38:53.826Z,13.50
2022-08-29T11:41:30.058Z,12.02
2022-08-29T11:44:14.092Z,10.18
2022-08-29T11:49:40.245Z,10.70
2022-08-29T11:52:22.547Z,12.05
2022-08-29T11:55:22.538Z,9.32
2022-08-29T11:58:05.750Z,10.50
2022-08-29T12:00:47.083Z,10.63
2022-08-29T12:03:54.636Z,10.13
2022-08-29T12:06:32.095Z,9.05
2022-08-29T12:09:13.379Z,10.57
2022-08-29T12:12:14.023Z,9.23
2022-08-29T12:14:48.262Z,10.63
2022-08-29T12:18:00.889Z,10.93
2022-08-29T12:20:42.985Z,10.40
2022-08-29T12:23:27.702Z,9.55
2022-08-29T12:28:58.935Z,8.90
2022-08-29T12:31:56.902Z,9.25
2022-08-29T12:34:51.015Z,9.88
2022-08-29T12:37:54.163Z,10.40
2022-08-29T12:40:47.055Z,9.57
2022-08-29T12:43:41.448Z,10.73
2022-08-29T12:46:24.332Z,9.60
2022-08-29T12:49:04.333Z,11.05
2022-08-29T12:51:40.654Z,10.75
2022-08-29T12:54:13.003Z,10.15
2022-08-29T12:56:48.884Z,11.20
2022-08-29T12:59:21.485Z,10.48
2022-08-29T13:01:55.925Z,9.20
2022-08-29T13:04:32.505Z,10.57
2022-08-29T13:07:05.181Z,9.30
2022-08-29T13:09:39.121Z,10.83
2022-08-29T13:12:12.168Z,8.77
2022-08-29T13:15:00.818Z,9.50
2022-08-29T13:17:35.079Z,8.65
2022-08-29T13:20:45.992Z,9.25
2022-08-29T13:23:26.760Z,8.82
2022-08-29T13:26:01.106Z,9.48
2022-08-29T13:28:38.487Z,9.15
2022-08-29T13:31:25.812Z,9.27
2022-08-29T13:34:19.402Z,9.63
2022-08-29T13:37:02.688Z,9.60
2022-08-29T13:39:44.694Z,9.95
2022-08-29T13:42:24.187Z,9.23
2022-08-29T13:45:16.148Z,8.98
2022-08-29T13:48:03.819Z,8.57
2022-08-29T13:50:33.937Z,9.23
2022-08-29T13:53:05.304Z,9.52
2022-08-29T13:55:36.466Z,9.40
2022-08-29T13:58:06.304Z,9.40
2022-08-29T14:00:36.372Z,9.25
2022-08-29T14:03:09.294Z,8.60
2022-08-29T14:05:39.519Z,8.52
2022-08-29T14:08:13.760Z,8.45
2022-08-29T14:10:44.202Z,8.55
2022-08-29T14:13:14.951Z,8.40
2022-08-29T14:15:45.853Z,8.98
2022-08-29T14:18:16.368Z,9.73
2022-08-29T14:20:47.701Z,9.55
2022-08-29T14:23:22.698Z,10.75
2022-08-29T14:25:53.316Z,11.02
2022-08-29T14:28:23.177Z,10.57
2022-08-29T14:30:53.378Z,10.18
2022-08-29T14:33:24.092Z,10.57
2022-08-29T14:35:54.996Z,11.00
2022-08-29T14:38:26.262Z,15.25
2022-08-29T14:40:56.652Z,12.80
2022-08-29T14:43:26.572Z,18.55
2022-08-29T14:45:56.607Z,70.47
2022-08-29T14:48:30.122Z,48.08
2022-08-29T14:51:01.751Z,56.50
2022-08-29T14:53:37.416Z,26.95
2022-08-29T14:56:37.565Z,19.45
2022-08-29T14:59:07.015Z,11.27
2022-08-29T15:01:37.398Z,10.23
2022-08-29T15:04:07.411Z,15.30
2022-08-29T15:06:38.000Z,14.82
2022-08-29T15:09:09.457Z,15.85
2022-08-29T15:11:40.051Z,12.63
2022-08-29T15:14:11.842Z,12.73
2022-08-29T15:16:42.309Z,12.73
2022-08-29T15:19:45.089Z,15.13
2022-08-29T15:22:02.317Z,13.93
2022-08-29T15:24:34.122Z,12.13
2022-08-29T15:27:05.513Z,11.18
2022-08-29T15:29:37.300Z,11.77
2022-08-29T15:32:07.579Z,11.48
2022-08-29T15:34:37.497Z,12.80
2022-08-29T15:37:08.492Z,13.40
2022-08-29T15:39:40.349Z,11.95
2022-08-29T15:42:17.226Z,14.57
2022-08-29T15:44:47.885Z,14.68
2022-08-29T15:47:21.533Z,13.77
2022-08-29T15:50:02.758Z,13.77
2022-08-29T15:52:33.486Z,13.68
2022-08-29T15:55:05.486Z,14.25
2022-08-29T15:57:50.949Z,13.25
2022-08-29T16:00:30.358Z,14.02
2022-08-29T16:03:03.428Z,14.52
2022-08-29T16:05:34.291Z,12.70
2022-08-29T16:08:04.607Z,13.82
2022-08-29T16:10:36.192Z,14.07
2022-08-29T16:13:07.162Z,10.80
2022-08-29T16:15:37.636Z,13.00
2022-08-29T16:18:07.848Z,10.48
2022-08-29T16:20:40.867Z,12.68
2022-08-29T16:23:13.360Z,9.40
2022-08-29T16:25:44.877Z,9.73
2022-08-29T16:28:15.054Z,11.10
2022-08-29T16:30:46.046Z,8.27
2022-08-29T16:33:16.232Z,8.82
2022-08-29T16:35:46.414Z,9.60
2022-08-29T16:38:16.942Z,9.80
2022-08-29T16:40:48.781Z,10.77
2022-08-29T16:43:19.237Z,10.93
2022-08-29T16:45:49.263Z,10.88
2022-08-29T16:48:19.563Z,8.88
2022-08-29T16:50:49.641Z,10.45
2022-08-29T16:53:19.918Z,12.05
2022-08-29T16:55:51.306Z,9.98
2022-08-29T16:58:38.791Z,8.82
2022-08-29T17:01:09.809Z,9.48
2022-08-29T17:03:40.086Z,10.63
2022-08-29T17:06:10.117Z,10.52
2022-08-29T17:08:39.305Z,10.23
2022-08-29T17:11:09.872Z,11.15
2022-08-29T17:13:40.732Z,10.23
2022-08-29T17:16:10.949Z,11.35
2022-08-29T17:18:41.703Z,12.50
2022-08-29T17:21:12.432Z,11.02
2022-08-29T17:23:43.463Z,12.18
2022-08-29T17:26:17.447Z,11.45
2022-08-29T17:28:49.312Z,9.48
2022-08-29T17:31:20.145Z,11.93
2022-08-29T17:33:50.042Z,11.82
2022-08-29T17:36:21.257Z,10.52
2022-08-29T17:38:51.534Z,9.73
2022-08-29T17:41:24.245Z,11.07
2022-08-29T17:43:54.629Z,10.55
2022-08-29T17:46:24.562Z,9.82
2022-08-29T17:48:54.621Z,9.35
2022-08-29T17:51:24.590Z,9.75
2022-08-29T17:53:54.622Z,9.85
2022-08-29T17:56:30.576Z,10.35
2022-08-29T17:59:04.163Z,8.68
2022-08-29T18:01:35.723Z,9.05
2022-08-29T18:04:06.057Z,8.60
2022-08-29T18:06:35.948Z,8.55
2022-08-29T18:09:06.696Z,9.27
2022-08-29T18:11:40.557Z,9.27
2022-08-29T18:14:11.259Z,8.65
2022-08-29T18:16:42.133Z,9.10
2022-08-29T18:19:13.547Z,9.05
2022-08-29T18:21:44.383Z,9.48
2022-08-29T18:24:15.757Z,8.68
2022-08-29T18:26:48.788Z,9.00
2022-08-29T18:29:19.181Z,8.18
2022-08-29T18:31:49.308Z,8.10
2022-08-29T18:34:19.932Z,8.35
2022-08-29T18:36:49.990Z,9.05
2022-08-29T18:39:20.279Z,13.63
2022-08-29T18:41:52.190Z,14.27
2022-08-29T18:44:24.582Z,17.10
2022-08-29T18:46:54.828Z,12.77
2022-08-29T18:49:44.801Z,12.10
2022-08-29T18:52:15.409Z,13.05
2022-08-29T18:54:45.617Z,18.02
2022-08-29T18:57:16.881Z,12.35
2022-08-29T18:59:46.895Z,10.43
2022-08-29T19:02:16.796Z,9.90
2022-08-29T19:04:47.362Z,10.18
2022-08-29T19:07:24.221Z,9.65
2022-08-29T19:09:54.682Z,8.75
2022-08-29T19:12:26.471Z,9.05
2022-08-29T19:14:57.174Z,8.60
2022-08-29T19:17:27.344Z,12.90
2022-08-29T19:20:15.007Z,9.40
2022-08-29T19:22:46.715Z,9.10
2022-08-29T19:25:16.692Z,8.90
2022-08-29T19:27:48.061Z,9.75
2022-08-29T19:30:38.137Z,9.55
2022-08-29T19:33:09.483Z,8.48
2022-08-29T19:35:39.979Z,9.48
2022-08-29T19:38:10.101Z,8.95
2022-08-29T19:40:40.658Z,8.85
2022-08-29T19:43:14.226Z,9.07
2022-08-29T19:45:46.038Z,9.15
2022-08-29T19:48:16.033Z,8.48
2022-08-29T19:50:48.026Z,8.43
2022-08-29T19:53:24.706Z,9.25
2022-08-29T19:55:57.427Z,9.35
2022-08-29T19:58:31.454Z,9.60
2022-08-29T20:01:03.325Z,9.70
2022-08-29T20:03:34.433Z,8.70
2022-08-29T20:06:06.955Z,7.70
2022-08-29T20:08:39.811Z,9.82
2022-08-29T20:11:12.723Z,9.60
2022-08-29T20:13:50.073Z,8.90
2022-08-29T20:16:24.298Z,9.50
2022-08-29T20:18:55.212Z,9.52
2022-08-29T20:21:26.342Z,8.40
2022-08-29T20:26:31.533Z,8.77
2022-08-29T20:29:07.104Z,8.73
2022-08-29T20:31:38.670Z,8.05
2022-08-29T20:34:08.753Z,8.88
2022-08-29T20:36:56.018Z,9.38
2022-08-29T20:39:26.645Z,9.40
2022-08-29T20:41:58.588Z,9.55
2022-08-29T20:44:34.366Z,9.88
2022-08-29T20:47:05.632Z,8.82
2022-08-29T20:49:37.297Z,8.63
2022-08-29T20:52:07.234Z,9.60
2022-08-29T20:54:38.989Z,9.50
2022-08-29T20:57:09.414Z,9.05
2022-08-29T20:59:44.905Z,9.02
2022-08-29T21:02:15.041Z,9.88
2022-08-29T21:05:02.159Z,10.18
2022-08-29T21:07:32.022Z,8.95
2022-08-29T21:10:02.241Z,9.13
2022-08-29T21:12:32.775Z,9.43
2022-08-29T21:15:05.017Z,9.15
2022-08-29T21:17:35.672Z,8.15
2022-08-29T21:20:07.648Z,9.80
2022-08-29T21:22:37.539Z,9.35
2022-08-29T21:25:08.088Z,9.93
2022-08-29T21:27:38.800Z,9.30
2022-08-29T21:30:11.694Z,8.70
2022-08-29T21:32:41.941Z,9.27
2022-08-29T21:35:11.891Z,8.93
2022-08-29T21:37:41.837Z,8.35
2022-08-29T21:40:13.267Z,9.02
2022-08-29T21:42:43.216Z,9.35
2022-08-29T21:45:14.871Z,8.95
2022-08-29T21:47:48.729Z,10.05
2022-08-29T21:50:19.133Z,9.02
2022-08-29T21:52:49.701Z,9.10
2022-08-29T21:55:21.745Z,9.82
2022-08-29T21:57:55.404Z,9.35
2022-08-29T22:02:58.408Z,8.75
2022-08-29T22:05:30.887Z,9.27
2022-08-29T22:08:03.001Z,9.52
2022-08-29T22:10:35.680Z,9.63
2022-08-29T22:13:07.937Z,9.80
2022-08-29T22:15:57.203Z,9.93
2022-08-29T22:18:27.687Z,10.82
2022-08-29T22:21:02.445Z,9.57
2022-08-29T22:23:32.457Z,10.02
2022-08-29T22:26:02.300Z,11.00
2022-08-29T22:28:32.264Z,9.50
2022-08-29T22:31:03.465Z,9.68
2022-08-29T22:33:33.435Z,9.10
2022-08-29T22:36:03.699Z,9.95
2022-08-29T22:38:33.615Z,10.10
2022-08-29T22:41:03.474Z,9.95
2022-08-29T22:43:33.285Z,8.85
2022-08-29T22:46:10.261Z,9.95
2022-08-29T22:48:40.826Z,10.38
2022-08-29T22:51:16.728Z,10.60
2022-08-29T22:54:08.251Z,10.07
2022-08-29T22:56:39.831Z,10.57
2022-08-29T22:59:10.668Z,10.70
2022-08-29T23:01:45.518Z,10.07
2022-08-29T23:04:15.465Z,10.35
2022-08-29T23:06:45.475Z,10.50
2022-08-29T23:09:15.496Z,10.57
2022-08-29T23:11:47.351Z,9.23
2022-08-29T23:14:20.805Z,10.50
2022-08-29T23:19:22.376Z,10.68
2022-08-29T23:21:52.391Z,11.10
2022-08-29T23:24:22.355Z,11.45
2022-08-29T23:26:52.320Z,11.15
2022-08-29T23:29:22.269Z,11.98
2022-08-29T23:31:53.583Z,11.95
2022-08-29T23:34:24.096Z,11.02
2022-08-29T23:36:54.032Z,11.40
2022-08-29T23:39:24.027Z,11.88
2022-08-29T23:41:54.094Z,10.98
2022-08-29T23:44:25.152Z,11.23
2022-08-29T23:46:57.986Z,11.48
2022-08-29T23:49:29.741Z,10.60
2022-08-29T23:52:01.244Z,11.27
2022-08-29T23:54:31.665Z,12.30
2022-08-29T23:57:02.680Z,11.35
2022-08-29T23:59:51.022Z,12.02
